createdAt,value
2022-12-08T00:00:01.481Z,13.80
2022-12-08T00:02:28.265Z,13.18
2022-12-08T00:04:55.206Z,13.30
2022-12-08T00:07:21.826Z,13.00
2022-12-08T00:09:49.565Z,13.00
2022-12-08T00:12:16.227Z,13.48
2022-12-08T00:14:45.268Z,13.15
2022-12-08T00:17:15.214Z,13.30
2022-12-08T00:19:43.047Z,13.77
2022-12-08T00:22:10.897Z,13.57
2022-12-08T00:24:39.115Z,13.40
2022-12-08T00:27:07.412Z,14.05
2022-12-08T00:29:34.053Z,13.80
2022-12-08T00:32:00.859Z,14.00
2022-12-08T00:34:27.600Z,14.80
2022-12-08T00:36:54.257Z,13.35
2022-12-08T00:39:20.904Z,14.30
2022-12-08T00:41:47.617Z,14.95
2022-12-08T00:44:16.520Z,15.98
2022-12-08T00:46:43.200Z,16.27
2022-12-08T00:49:09.890Z,16.13
2022-12-08T00:51:37.243Z,16.20
2022-12-08T00:54:05.278Z,16.40
2022-12-08T00:56:32.553Z,15.93
2022-12-08T00:58:59.970Z,16.90
2022-12-08T01:01:27.629Z,16.02
2022-12-08T01:03:54.333Z,15.95
2022-12-08T01:06:21.043Z,15.57
2022-12-08T01:08:47.761Z,15.57
2022-12-08T01:11:19.452Z,16.27
2022-12-08T01:13:46.848Z,16.35
2022-12-08T01:16:30.970Z,16.67
2022-12-08T01:18:59.296Z,17.70
2022-12-08T01:21:26.996Z,17.58
2022-12-08T01:23:54.426Z,17.35
2022-12-08T01:26:21.535Z,18.42
2022-12-08T01:28:48.508Z,17.25
2022-12-08T01:31:20.538Z,18.80
2022-12-08T01:33:47.876Z,19.98
2022-12-08T01:36:29.308Z,20.05
2022-12-08T01:38:58.861Z,20.52
2022-12-08T01:41:31.542Z,20.35
2022-12-08T01:44:22.683Z,19.40
2022-12-08T01:46:49.794Z,21.08
2022-12-08T01:49:32.918Z,21.17
2022-12-08T01:52:22.414Z,19.27
2022-12-08T01:55:02.419Z,19.35
2022-12-08T01:57:36.391Z,19.92
2022-12-08T02:00:08.160Z,20.33
2022-12-08T02:03:00.239Z,18.98
2022-12-08T02:05:30.989Z,19.55
2022-12-08T02:08:00.069Z,19.23
2022-12-08T02:10:33.050Z,20.13
2022-12-08T02:13:01.025Z,20.67
2022-12-08T02:15:46.704Z,22.05
2022-12-08T02:18:34.276Z,21.05
2022-12-08T02:21:23.728Z,20.20
2022-12-08T02:23:59.691Z,19.40
2022-12-08T02:26:32.159Z,19.35
2022-12-08T02:29:17.531Z,19.42
2022-12-08T02:32:05.357Z,19.83
2022-12-08T02:34:38.809Z,19.02
2022-12-08T02:37:29.388Z,19.27
2022-12-08T02:40:06.354Z,19.63
2022-12-08T02:42:43.590Z,19.80
2022-12-08T02:45:16.958Z,18.95
2022-12-08T02:47:44.612Z,18.55
2022-12-08T02:50:12.086Z,18.10
2022-12-08T02:52:44.369Z,18.25
2022-12-08T02:55:20.744Z,17.50
2022-12-08T02:58:28.726Z,17.27
2022-12-08T03:01:07.564Z,16.85
2022-12-08T03:03:44.704Z,17.17
2022-12-08T03:06:30.552Z,16.13
2022-12-08T03:09:35.701Z,15.73
2022-12-08T03:12:11.712Z,15.70
2022-12-08T03:14:40.650Z,16.10
2022-12-08T03:17:08.577Z,15.48
2022-12-08T03:19:39.011Z,14.60
2022-12-08T03:22:07.194Z,15.23
2022-12-08T03:24:55.019Z,15.43
2022-12-08T03:27:30.688Z,15.25
2022-12-08T03:29:59.814Z,15.90
2022-12-08T03:32:40.054Z,15.90
2022-12-08T03:35:11.173Z,15.70
2022-12-08T03:37:39.990Z,15.77
2022-12-08T03:40:09.573Z,15.43
2022-12-08T03:42:36.266Z,17.02
2022-12-08T03:45:03.344Z,15.63
2022-12-08T03:47:30.103Z,15.63
2022-12-08T03:49:56.783Z,16.83
2022-12-08T03:52:23.501Z,15.50
2022-12-08T03:54:50.183Z,15.90
2022-12-08T03:57:16.959Z,16.48
2022-12-08T03:59:44.135Z,16.48
2022-12-08T04:02:10.847Z,17.80
2022-12-08T04:04:37.549Z,19.23
2022-12-08T04:07:04.298Z,18.90
2022-12-08T04:09:30.951Z,21.02
2022-12-08T04:11:57.639Z,22.42
2022-12-08T04:14:24.563Z,23.52
2022-12-08T04:16:51.219Z,25.85
2022-12-08T04:19:17.898Z,25.45
2022-12-08T04:21:44.546Z,25.77
2022-12-08T04:24:11.270Z,26.15
2022-12-08T04:26:37.988Z,26.13
2022-12-08T04:29:04.675Z,28.27
2022-12-08T04:31:31.453Z,28.17
2022-12-08T04:33:58.191Z,27.77
2022-12-08T04:36:24.894Z,28.85
2022-12-08T04:38:51.585Z,28.25
2022-12-08T04:41:18.278Z,28.35
2022-12-08T04:43:45.387Z,29.25
2022-12-08T04:46:12.179Z,30.55
2022-12-08T04:48:40.145Z,30.45
2022-12-08T04:51:07.617Z,30.95
2022-12-08T04:53:34.353Z,32.53
2022-12-08T04:56:01.050Z,32.10
2022-12-08T04:58:27.752Z,31.20
2022-12-08T05:00:54.469Z,31.88
2022-12-08T05:03:26.872Z,32.00
2022-12-08T05:05:55.415Z,32.78
2022-12-08T05:08:22.116Z,32.88
2022-12-08T05:10:48.867Z,33.90
2022-12-08T05:13:15.539Z,32.97
2022-12-08T05:15:42.294Z,31.00
2022-12-08T05:18:09.032Z,30.00
2022-12-08T05:20:36.069Z,31.67
2022-12-08T05:23:02.717Z,31.00
2022-12-08T05:25:29.608Z,33.08
2022-12-08T05:28:17.680Z,33.72
2022-12-08T05:30:43.088Z,31.23
2022-12-08T05:33:11.016Z,33.65
2022-12-08T05:35:37.710Z,33.65
2022-12-08T05:38:05.080Z,34.25
2022-12-08T05:40:31.768Z,35.15
2022-12-08T05:42:58.443Z,33.53
2022-12-08T05:45:25.178Z,35.10
2022-12-08T05:47:53.526Z,34.67
2022-12-08T05:50:20.183Z,36.10
2022-12-08T05:52:46.878Z,35.85
2022-12-08T05:55:13.608Z,36.08
2022-12-08T05:57:40.314Z,35.95
2022-12-08T06:00:07.884Z,34.78
2022-12-08T06:02:36.471Z,34.38
2022-12-08T06:05:03.298Z,36.38
2022-12-08T06:07:30.123Z,37.28
2022-12-08T06:09:56.878Z,36.58
2022-12-08T06:12:23.527Z,36.67
2022-12-08T06:14:50.206Z,36.45
2022-12-08T06:17:16.954Z,36.50
2022-12-08T06:19:43.687Z,37.50
2022-12-08T06:22:10.361Z,37.15
2022-12-08T06:24:37.025Z,36.10
2022-12-08T06:27:03.722Z,37.60
2022-12-08T06:29:30.403Z,37.90
2022-12-08T06:31:57.134Z,37.63
2022-12-08T06:34:23.941Z,34.95
2022-12-08T06:36:50.643Z,35.13
2022-12-08T06:39:17.323Z,32.92
2022-12-08T06:41:43.946Z,32.33
2022-12-08T06:44:10.647Z,33.03
2022-12-08T06:46:37.290Z,31.55
2022-12-08T06:49:04.053Z,32.55
2022-12-08T06:51:30.737Z,33.55
2022-12-08T06:53:57.344Z,30.88
2022-12-08T06:56:24.010Z,32.40
2022-12-08T06:58:52.979Z,34.60
2022-12-08T07:01:20.102Z,31.75
2022-12-08T07:03:46.827Z,30.83
2022-12-08T07:06:25.220Z,30.63
2022-12-08T07:08:52.007Z,31.33
2022-12-08T07:11:22.055Z,29.95
2022-12-08T07:13:50.266Z,31.15
2022-12-08T07:16:17.085Z,32.38
2022-12-08T07:18:43.938Z,30.38
2022-12-08T07:21:12.913Z,30.23
2022-12-08T07:23:39.749Z,31.52
2022-12-08T07:26:08.178Z,29.00
2022-12-08T07:28:36.908Z,29.23
2022-12-08T07:31:04.980Z,29.55
2022-12-08T07:33:32.878Z,30.10
2022-12-08T07:36:05.462Z,31.48
2022-12-08T07:38:32.744Z,30.00
2022-12-08T07:40:59.783Z,29.52
2022-12-08T07:43:26.686Z,29.23
2022-12-08T07:45:53.624Z,28.08
2022-12-08T07:48:20.581Z,28.88
2022-12-08T07:50:47.587Z,29.30
2022-12-08T07:53:14.553Z,28.73
2022-12-08T07:55:43.000Z,27.23
2022-12-08T07:58:10.657Z,27.10
2022-12-08T08:00:37.439Z,26.10
2022-12-08T08:03:04.368Z,27.90
2022-12-08T08:05:31.166Z,26.25
2022-12-08T08:07:57.939Z,27.75
2022-12-08T08:10:24.668Z,26.35
2022-12-08T08:12:51.394Z,29.35
2022-12-08T08:15:18.250Z,25.85
2022-12-08T08:17:44.943Z,25.52
2022-12-08T08:20:12.153Z,23.02
2022-12-08T08:22:38.824Z,25.38
2022-12-08T08:25:05.859Z,25.45
2022-12-08T08:27:32.629Z,26.83
2022-12-08T08:29:59.301Z,27.05
2022-12-08T08:32:25.978Z,29.08
2022-12-08T08:34:52.662Z,29.33
2022-12-08T08:37:19.457Z,30.17
2022-12-08T08:39:46.170Z,29.15
2022-12-08T08:42:12.885Z,29.42
2022-12-08T08:44:39.542Z,29.55
2022-12-08T08:47:06.342Z,28.65
2022-12-08T08:49:33.079Z,28.45
2022-12-08T08:51:59.766Z,30.80
2022-12-08T08:54:28.984Z,29.88
2022-12-08T08:57:00.509Z,31.40
2022-12-08T08:59:27.969Z,30.60
2022-12-08T09:01:55.195Z,30.95
2022-12-08T09:04:23.225Z,29.15
2022-12-08T09:06:49.946Z,29.60
2022-12-08T09:09:17.111Z,29.38
2022-12-08T09:11:43.967Z,29.60
2022-12-08T09:14:14.738Z,28.20
2022-12-08T09:16:42.769Z,29.20
2022-12-08T09:19:09.802Z,29.92
2022-12-08T09:21:36.565Z,27.95
2022-12-08T09:24:03.549Z,29.08
2022-12-08T09:26:30.331Z,38.85
2022-12-08T09:28:57.500Z,27.88
2022-12-08T09:31:24.939Z,30.05
2022-12-08T09:33:51.885Z,27.20
2022-12-08T09:36:19.250Z,27.30
2022-12-08T09:38:45.991Z,28.65
2022-12-08T09:41:37.469Z,27.75
2022-12-08T09:44:28.995Z,26.33
2022-12-08T09:46:58.702Z,28.13
2022-12-08T09:49:41.602Z,29.17
2022-12-08T09:52:31.304Z,28.58
2022-12-08T09:55:01.238Z,28.52
2022-12-08T09:57:28.222Z,27.27
2022-12-08T10:00:06.072Z,27.55
2022-12-08T10:02:33.747Z,27.63
2022-12-08T10:05:00.617Z,29.20
2022-12-08T10:07:32.550Z,27.73
2022-12-08T10:10:22.295Z,27.48
2022-12-08T10:13:01.120Z,25.60
2022-12-08T10:15:41.707Z,26.35
2022-12-08T10:18:18.352Z,26.98
2022-12-08T10:20:47.969Z,27.02
2022-12-08T10:23:35.364Z,25.23
2022-12-08T10:26:17.699Z,24.80
2022-12-08T10:28:45.616Z,25.25
2022-12-08T10:31:31.407Z,28.33
2022-12-08T10:34:28.195Z,25.02
2022-12-08T10:36:57.369Z,25.60
2022-12-08T10:39:31.213Z,24.48
2022-12-08T10:42:22.208Z,25.60
2022-12-08T10:45:27.438Z,24.63
2022-12-08T10:48:01.593Z,24.60
2022-12-08T10:50:32.196Z,25.40
2022-12-08T10:53:10.884Z,24.92
2022-12-08T10:55:49.275Z,24.05
2022-12-08T10:58:32.947Z,24.23
2022-12-08T11:01:23.997Z,23.27
2022-12-08T11:03:53.963Z,26.40
2022-12-08T11:06:36.672Z,24.80
2022-12-08T11:09:11.404Z,24.67
2022-12-08T11:11:54.850Z,24.90
2022-12-08T11:14:24.533Z,23.83
2022-12-08T11:17:11.589Z,22.58
2022-12-08T11:19:41.100Z,21.70
2022-12-08T11:22:27.909Z,22.60
2022-12-08T11:25:27.261Z,25.02
2022-12-08T11:27:58.030Z,23.65
2022-12-08T11:30:42.699Z,21.40
2022-12-08T11:33:25.797Z,21.80
2022-12-08T11:36:11.362Z,22.23
2022-12-08T11:38:44.060Z,22.17
2022-12-08T11:41:16.999Z,22.67
2022-12-08T11:44:00.832Z,24.42
2022-12-08T11:46:50.036Z,24.25
2022-12-08T11:49:16.960Z,28.42
2022-12-08T11:51:54.647Z,26.98
2022-12-08T11:54:29.792Z,27.98
2022-12-08T11:56:59.161Z,26.50
2022-12-08T11:59:34.684Z,28.75
2022-12-08T12:02:05.220Z,28.23
2022-12-08T12:04:35.799Z,29.65
2022-12-08T12:07:26.401Z,28.08
2022-12-08T12:09:56.118Z,24.92
2022-12-08T12:12:34.938Z,26.90
2022-12-08T12:15:39.918Z,28.55
2022-12-08T12:18:30.698Z,25.55
2022-12-08T12:21:12.507Z,26.42
2022-12-08T12:23:42.143Z,26.17
2022-12-08T12:26:24.254Z,22.95
2022-12-08T12:29:04.986Z,23.83
2022-12-08T12:31:51.971Z,22.38
2022-12-08T12:34:23.886Z,24.73
2022-12-08T12:36:55.316Z,22.27
2022-12-08T12:39:27.204Z,19.77
2022-12-08T12:41:59.592Z,18.50
2022-12-08T12:44:29.157Z,19.52
2022-12-08T12:47:06.368Z,20.50
2022-12-08T12:49:39.299Z,22.05
2022-12-08T12:52:15.632Z,25.98
2022-12-08T12:54:43.361Z,24.58
2022-12-08T12:57:09.984Z,23.80
2022-12-08T13:00:05.519Z,24.20
2022-12-08T13:02:37.993Z,25.10
2022-12-08T13:05:26.638Z,25.30
2022-12-08T13:07:56.244Z,25.33
2022-12-08T13:10:33.462Z,26.05
2022-12-08T13:13:17.484Z,25.55
2022-12-08T13:15:56.803Z,24.67
2022-12-08T13:18:28.970Z,22.33
2022-12-08T13:21:18.597Z,24.17
2022-12-08T13:24:07.061Z,24.55
2022-12-08T13:26:44.220Z,24.55
2022-12-08T13:29:27.051Z,25.10
2022-12-08T13:31:57.467Z,21.52
2022-12-08T13:34:32.979Z,23.08
2022-12-08T13:37:11.996Z,21.98
2022-12-08T13:39:44.702Z,22.90
2022-12-08T13:42:32.587Z,23.70
2022-12-08T13:48:27.030Z,22.38
2022-12-08T13:55:00.736Z,21.33
2022-12-08T13:57:11.246Z,22.50
2022-12-08T13:59:44.840Z,23.80
2022-12-08T14:02:29.937Z,24.13
2022-12-08T14:07:44.639Z,23.27
2022-12-08T14:10:19.422Z,25.40
2022-12-08T14:12:51.336Z,24.67
2022-12-08T14:15:19.977Z,23.95
2022-12-08T14:17:55.597Z,22.15
2022-12-08T14:20:46.475Z,17.63
2022-12-08T14:25:47.897Z,17.27
2022-12-08T14:28:14.634Z,14.07
2022-12-08T14:30:41.420Z,15.23
2022-12-08T14:33:14.529Z,16.05
2022-12-08T14:35:41.323Z,15.80
2022-12-08T14:38:19.605Z,16.85
2022-12-08T14:40:48.992Z,15.30
2022-12-08T14:43:18.647Z,16.15
2022-12-08T14:45:45.391Z,13.55
2022-12-08T14:48:26.478Z,12.10
2022-12-08T14:51:15.244Z,12.52
2022-12-08T14:53:54.556Z,11.10
2022-12-08T14:56:36.175Z,11.40
2022-12-08T14:59:07.326Z,11.43
2022-12-08T15:01:35.070Z,11.52
2022-12-08T15:04:12.527Z,11.77
2022-12-08T15:07:13.577Z,13.05
2022-12-08T15:09:42.088Z,12.30
2022-12-08T15:12:14.970Z,12.80
2022-12-08T15:14:55.102Z,13.23
2022-12-08T15:17:40.210Z,13.50
2022-12-08T15:20:27.576Z,13.35
2022-12-08T15:22:58.532Z,14.93
2022-12-08T15:25:25.378Z,13.10
2022-12-08T15:27:52.181Z,14.45
2022-12-08T15:30:19.431Z,14.65
2022-12-08T15:32:46.175Z,13.43
2022-12-08T15:35:14.577Z,15.25
2022-12-08T15:37:41.896Z,13.60
2022-12-08T15:40:17.109Z,15.68
2022-12-08T15:42:43.799Z,14.48
2022-12-08T15:45:14.277Z,15.05
2022-12-08T15:47:42.454Z,15.23
2022-12-08T15:50:18.544Z,15.15
2022-12-08T15:52:45.558Z,15.13
2022-12-08T15:55:17.322Z,14.52
2022-12-08T16:00:53.856Z,15.75
2022-12-08T16:09:12.322Z,14.95
2022-12-08T16:12:05.258Z,14.40
2022-12-08T16:15:46.702Z,14.73
2022-12-08T16:17:15.827Z,14.75
2022-12-08T16:19:42.607Z,16.95
2022-12-08T16:25:22.658Z,16.63
2022-12-08T16:28:08.337Z,15.40
2022-12-08T16:30:39.693Z,15.73
2022-12-08T16:33:06.731Z,14.20
2022-12-08T16:35:33.525Z,13.98
2022-12-08T16:38:00.297Z,12.90
2022-12-08T16:40:26.985Z,13.27
2022-12-08T16:42:53.737Z,12.95
2022-12-08T16:45:26.148Z,13.73
2022-12-08T16:47:54.137Z,13.43
2022-12-08T16:50:23.286Z,14.63
2022-12-08T16:52:56.098Z,12.50
2022-12-08T16:55:22.867Z,12.88
2022-12-08T16:57:49.597Z,13.10
2022-12-08T17:00:22.048Z,12.95
2022-12-08T17:02:49.543Z,12.80
2022-12-08T17:05:18.443Z,12.57
2022-12-08T17:07:47.061Z,11.60
2022-12-08T17:10:17.458Z,12.27
2022-12-08T17:12:44.824Z,12.57
2022-12-08T17:15:15.301Z,11.82
2022-12-08T17:17:42.212Z,13.13
2022-12-08T17:20:15.363Z,12.80
2022-12-08T17:22:42.075Z,13.50
2022-12-08T17:25:09.195Z,12.85
2022-12-08T17:27:36.792Z,12.77
2022-12-08T17:30:05.564Z,13.35
2022-12-08T17:32:32.743Z,14.70
2022-12-08T17:34:59.599Z,13.52
2022-12-08T17:37:26.518Z,13.93
2022-12-08T17:39:54.408Z,14.82
2022-12-08T17:42:21.216Z,15.13
2022-12-08T17:44:47.997Z,15.57
2022-12-08T17:47:14.674Z,16.55
2022-12-08T17:49:41.478Z,15.35
2022-12-08T17:52:08.179Z,14.32
2022-12-08T17:54:34.981Z,16.58
2022-12-08T17:57:01.869Z,16.05
2022-12-08T17:59:29.315Z,16.23
2022-12-08T18:01:57.526Z,16.92
2022-12-08T18:04:26.429Z,16.33
2022-12-08T18:06:53.228Z,16.05
2022-12-08T18:09:20.287Z,16.48
2022-12-08T18:11:47.269Z,16.25
2022-12-08T18:14:14.588Z,17.90
2022-12-08T18:16:45.972Z,17.92
2022-12-08T18:19:14.032Z,16.83
2022-12-08T18:21:41.726Z,17.45
2022-12-08T18:24:15.097Z,17.92
2022-12-08T18:26:41.830Z,17.23
2022-12-08T18:29:08.752Z,17.27
2022-12-08T18:31:35.501Z,17.10
2022-12-08T18:34:02.332Z,17.13
2022-12-08T18:36:29.093Z,16.50
2022-12-08T18:38:55.826Z,16.92
2022-12-08T18:41:25.172Z,19.38
2022-12-08T18:43:56.256Z,17.33
2022-12-08T18:46:24.162Z,18.02
2022-12-08T18:48:51.980Z,19.15
2022-12-08T18:51:25.303Z,18.65
2022-12-08T18:53:52.828Z,21.55
2022-12-08T18:56:29.252Z,21.95
2022-12-08T18:59:02.989Z,19.30
2022-12-08T19:01:35.101Z,18.83
2022-12-08T19:04:27.320Z,20.73
2022-12-08T19:06:52.820Z,20.27
2022-12-08T19:09:20.078Z,18.95
2022-12-08T19:11:46.967Z,20.65
2022-12-08T19:14:13.639Z,19.95
2022-12-08T19:16:40.335Z,21.52
2022-12-08T19:19:07.090Z,19.38
2022-12-08T19:21:35.791Z,20.23
2022-12-08T19:24:02.511Z,19.08
2022-12-08T19:26:29.281Z,20.88
2022-12-08T19:28:57.061Z,20.00
2022-12-08T19:31:23.782Z,20.42
2022-12-08T19:33:50.562Z,18.60
2022-12-08T19:36:20.880Z,18.10
2022-12-08T19:38:47.698Z,16.02
2022-12-08T19:41:14.381Z,15.52
2022-12-08T19:43:41.189Z,16.27
2022-12-08T19:46:08.785Z,14.05
2022-12-08T19:48:35.609Z,13.07
2022-12-08T19:51:02.396Z,13.05
2022-12-08T19:53:29.061Z,13.43
2022-12-08T19:55:55.754Z,13.35
2022-12-08T19:58:22.464Z,13.80
2022-12-08T20:00:49.193Z,14.10
2022-12-08T20:03:18.052Z,14.82
2022-12-08T20:05:46.664Z,16.10
2022-12-08T20:08:13.503Z,14.98
2022-12-08T20:10:42.293Z,16.08
2022-12-08T20:13:13.476Z,15.27
2022-12-08T20:15:40.746Z,14.07
2022-12-08T20:18:07.612Z,15.48
2022-12-08T20:20:34.364Z,15.43
2022-12-08T20:23:01.341Z,15.98
2022-12-08T20:25:30.507Z,16.17
2022-12-08T20:27:57.324Z,17.75
2022-12-08T20:30:24.270Z,15.63
2022-12-08T20:32:56.126Z,15.55
2022-12-08T20:35:23.080Z,15.25
2022-12-08T20:37:50.002Z,15.40
2022-12-08T20:40:19.107Z,14.57
2022-12-08T20:42:45.959Z,20.58
2022-12-08T20:45:12.850Z,18.77
2022-12-08T20:47:39.638Z,16.10
2022-12-08T20:50:07.834Z,15.80
2022-12-08T20:52:34.882Z,15.43
2022-12-08T20:55:01.758Z,15.38
2022-12-08T20:57:28.677Z,16.27
2022-12-08T20:59:55.602Z,16.63
2022-12-08T21:02:22.442Z,15.32
2022-12-08T21:04:49.408Z,16.30
2022-12-08T21:07:16.459Z,16.48
2022-12-08T21:09:44.113Z,16.05
2022-12-08T21:12:11.592Z,16.00
2022-12-08T21:14:38.438Z,16.45
2022-12-08T21:17:07.213Z,16.42
2022-12-08T21:19:34.344Z,17.55
2022-12-08T21:22:01.258Z,16.98
2022-12-08T21:24:33.968Z,16.95
2022-12-08T21:27:01.941Z,18.15
2022-12-08T21:29:29.236Z,17.35
2022-12-08T21:31:59.349Z,16.50
2022-12-08T21:34:28.159Z,17.92
2022-12-08T21:36:55.022Z,18.33
2022-12-08T21:39:21.741Z,18.58
2022-12-08T21:41:51.695Z,18.92
2022-12-08T21:44:18.707Z,19.05
2022-12-08T21:46:45.568Z,19.45
2022-12-08T21:49:12.963Z,19.70
2022-12-08T21:51:39.797Z,18.38
2022-12-08T21:54:06.725Z,18.25
2022-12-08T21:56:33.630Z,18.60
2022-12-08T21:59:00.581Z,18.50
2022-12-08T22:01:27.650Z,19.15
2022-12-08T22:03:54.810Z,20.40
2022-12-08T22:06:21.800Z,20.23
2022-12-08T22:08:48.689Z,19.05
2022-12-08T22:11:15.613Z,18.67
2022-12-08T22:13:42.508Z,18.90
2022-12-08T22:16:12.118Z,19.67
2022-12-08T22:18:39.174Z,20.40
2022-12-08T22:21:17.278Z,21.52
2022-12-08T22:23:45.192Z,19.23
2022-12-08T22:26:13.215Z,20.63
2022-12-08T22:28:41.987Z,19.50
2022-12-08T22:31:19.501Z,21.42
2022-12-08T22:33:47.226Z,20.38
2022-12-08T22:36:25.507Z,22.30
2022-12-08T22:38:54.808Z,21.52
2022-12-08T22:41:22.150Z,21.17
2022-12-08T22:43:49.450Z,21.70
2022-12-08T22:46:19.919Z,22.05
2022-12-08T22:48:47.630Z,20.60
2022-12-08T22:51:15.273Z,22.65
2022-12-08T22:53:43.215Z,24.83
2022-12-08T22:56:11.848Z,22.33
2022-12-08T22:58:39.927Z,23.67
2022-12-08T23:01:07.564Z,21.70
2022-12-08T23:03:34.980Z,22.73
2022-12-08T23:06:02.227Z,22.48
2022-12-08T23:08:31.712Z,23.02
2022-12-08T23:10:58.500Z,22.00
2022-12-08T23:13:25.230Z,19.92
2022-12-08T23:15:51.931Z,21.77
2022-12-08T23:18:19.620Z,19.63
2022-12-08T23:20:47.150Z,21.10
2022-12-08T23:23:14.617Z,22.27
2022-12-08T23:25:43.080Z,19.00
2022-12-08T23:28:10.243Z,21.17
2022-12-08T23:30:39.976Z,19.70
2022-12-08T23:33:06.904Z,20.45
2022-12-08T23:35:33.780Z,20.98
2022-12-08T23:38:00.791Z,18.80
2022-12-08T23:40:27.551Z,15.07
2022-12-08T23:42:54.436Z,17.52
2022-12-08T23:45:21.241Z,19.55
2022-12-08T23:47:48.068Z,20.50
2022-12-08T23:50:15.037Z,21.58
2022-12-08T23:52:41.739Z,26.30
2022-12-08T23:55:08.890Z,24.75
2022-12-08T23:57:36.631Z,26.27
